createdAt,value
2023-01-02T00:00:21.282Z,19.91
2023-01-02T00:02:48.720Z,20.19
2023-01-02T00:05:15.511Z,20.68
2023-01-02T00:07:42.097Z,19.73
2023-01-02T00:10:10.177Z,19.62
2023-01-02T00:12:36.707Z,19.55
2023-01-02T00:15:04.487Z,19.27
2023-01-02T00:17:31.019Z,19.87
2023-01-02T00:19:57.741Z,19.62
2023-01-02T00:22:24.835Z,19.59
2023-01-02T00:24:51.347Z,19.52
2023-01-02T00:27:18.378Z,19.34
2023-01-02T00:29:44.937Z,19.46
2023-01-02T00:32:11.453Z,19.38
2023-01-02T00:34:37.994Z,20.41
2023-01-02T00:37:04.507Z,19.37
2023-01-02T00:39:31.027Z,19.28
2023-01-02T00:41:57.680Z,19.34
2023-01-02T00:44:24.216Z,19.61
2023-01-02T00:46:52.421Z,19.50
2023-01-02T00:49:19.296Z,19.81
2023-01-02T00:51:45.807Z,24.86
2023-01-02T00:54:12.314Z,29.55
2023-01-02T00:56:39.097Z,25.75
2023-01-02T00:59:05.604Z,20.95
2023-01-02T01:01:32.162Z,19.56
2023-01-02T01:03:58.761Z,18.92
2023-01-02T01:06:25.491Z,19.02
2023-01-02T01:08:52.020Z,19.43
2023-01-02T01:11:18.773Z,19.76
2023-01-02T01:13:45.671Z,19.34
2023-01-02T01:16:18.153Z,19.43
2023-01-02T01:18:46.079Z,19.20
2023-01-02T01:21:18.274Z,19.33
2023-01-02T01:23:49.027Z,19.39
2023-01-02T01:26:17.560Z,19.46
2023-01-02T01:28:44.132Z,19.55
2023-01-02T01:31:15.160Z,20.17
2023-01-02T01:33:43.058Z,19.65
2023-01-02T01:36:12.395Z,20.12
2023-01-02T01:38:39.298Z,20.44
2023-01-02T01:41:06.564Z,20.39
2023-01-02T01:43:40.553Z,20.55
2023-01-02T01:46:15.108Z,19.61
2023-01-02T01:48:41.910Z,19.47
2023-01-02T01:51:08.498Z,20.82
2023-01-02T01:53:35.574Z,21.19
2023-01-02T01:56:05.861Z,20.68
2023-01-02T01:58:37.865Z,20.70
2023-01-02T02:01:04.696Z,20.47
2023-01-02T02:03:34.984Z,20.74
2023-01-02T02:06:02.933Z,20.42
2023-01-02T02:08:48.150Z,21.10
2023-01-02T02:11:15.640Z,20.55
2023-01-02T02:13:42.446Z,21.07
2023-01-02T02:16:15.363Z,21.49
2023-01-02T02:18:49.037Z,21.39
2023-01-02T02:21:34.311Z,20.95
2023-01-02T02:24:01.105Z,21.15
2023-01-02T02:26:54.329Z,21.13
2023-01-02T02:29:42.501Z,21.58
2023-01-02T02:32:15.188Z,28.37
2023-01-02T02:35:04.455Z,32.21
2023-01-02T02:37:46.141Z,32.49
2023-01-02T02:40:41.486Z,32.62
2023-01-02T02:43:19.940Z,33.59
2023-01-02T02:46:05.988Z,33.77
2023-01-02T02:49:08.691Z,31.19
2023-01-02T02:51:42.708Z,24.87
2023-01-02T02:54:16.475Z,23.85
2023-01-02T02:56:44.154Z,23.64
2023-01-02T02:59:12.296Z,23.53
2023-01-02T03:01:39.121Z,23.76
2023-01-02T03:04:21.055Z,24.23
2023-01-02T03:07:02.635Z,23.95
2023-01-02T03:09:57.640Z,23.26
2023-01-02T03:12:55.190Z,23.54
2023-01-02T03:15:29.909Z,23.63
2023-01-02T03:18:29.868Z,24.13
2023-01-02T03:21:19.255Z,33.35
2023-01-02T03:23:49.328Z,33.14
2023-01-02T03:26:21.486Z,25.70
2023-01-02T03:28:55.527Z,23.16
2023-01-02T03:31:25.738Z,28.31
2023-01-02T03:33:58.835Z,30.34
2023-01-02T03:36:29.460Z,33.96
2023-01-02T03:39:09.055Z,33.68
2023-01-02T03:41:45.912Z,33.82
2023-01-02T03:44:15.396Z,30.74
2023-01-02T03:46:49.218Z,26.98
2023-01-02T03:49:23.889Z,25.01
2023-01-02T03:51:50.859Z,23.16
2023-01-02T03:54:18.579Z,23.74
2023-01-02T03:56:51.192Z,23.10
2023-01-02T03:59:38.769Z,24.03
2023-01-02T04:02:33.087Z,23.78
2023-01-02T04:05:09.873Z,30.07
2023-01-02T04:07:51.493Z,31.00
2023-01-02T04:10:19.237Z,31.87
2023-01-02T04:12:51.553Z,31.62
2023-01-02T04:15:22.423Z,33.36
2023-01-02T04:17:55.668Z,33.73
2023-01-02T04:20:28.366Z,32.19
2023-01-02T04:23:00.276Z,32.93
2023-01-02T04:25:33.471Z,35.09
2023-01-02T04:28:17.678Z,34.35
2023-01-02T04:30:49.791Z,35.32
2023-01-02T04:33:22.110Z,35.11
2023-01-02T04:35:48.776Z,34.75
2023-01-02T04:38:15.310Z,34.06
2023-01-02T04:40:42.028Z,34.36
2023-01-02T04:43:16.837Z,34.88
2023-01-02T04:45:43.365Z,34.78
2023-01-02T04:48:11.055Z,34.66
2023-01-02T04:50:37.573Z,34.93
2023-01-02T04:53:04.097Z,35.98
2023-01-02T04:55:30.650Z,35.60
2023-01-02T04:57:58.204Z,36.97
2023-01-02T05:00:24.876Z,36.08
2023-01-02T05:02:51.406Z,35.60
2023-01-02T05:05:17.939Z,35.81
2023-01-02T05:07:44.479Z,34.28
2023-01-02T05:10:10.998Z,26.02
2023-01-02T05:12:39.201Z,24.77
2023-01-02T05:15:09.132Z,33.80
2023-01-02T05:17:39.868Z,36.10
2023-01-02T05:20:08.862Z,36.98
2023-01-02T05:23:03.176Z,37.92
2023-01-02T05:25:35.376Z,30.05
2023-01-02T05:28:03.137Z,27.17
2023-01-02T05:30:30.132Z,24.98
2023-01-02T05:32:56.722Z,24.02
2023-01-02T05:35:28.535Z,22.97
2023-01-02T05:37:58.536Z,23.43
2023-01-02T05:40:26.112Z,23.27
2023-01-02T05:42:52.604Z,22.74
2023-01-02T05:45:19.383Z,23.09
2023-01-02T05:47:46.280Z,22.86
2023-01-02T05:50:12.780Z,22.19
2023-01-02T05:52:45.117Z,22.54
2023-01-02T05:55:12.613Z,23.21
2023-01-02T05:57:41.595Z,23.30
2023-01-02T06:00:08.657Z,23.12
2023-01-02T06:02:40.451Z,22.68
2023-01-02T06:05:09.897Z,22.94
2023-01-02T06:07:36.416Z,22.62
2023-01-02T06:10:03.006Z,22.40
2023-01-02T06:12:29.521Z,22.47
2023-01-02T06:14:56.040Z,22.99
2023-01-02T06:17:22.613Z,22.51
2023-01-02T06:19:53.984Z,22.53
2023-01-02T06:22:20.817Z,22.72
2023-01-02T06:24:47.369Z,22.55
2023-01-02T06:27:13.900Z,22.48
2023-01-02T06:29:40.436Z,22.37
2023-01-02T06:32:06.938Z,22.77
2023-01-02T06:34:33.885Z,22.32
2023-01-02T06:37:06.080Z,21.81
2023-01-02T06:39:35.924Z,21.84
2023-01-02T06:42:02.802Z,21.60
2023-01-02T06:44:29.753Z,21.60
2023-01-02T06:46:56.299Z,22.01
2023-01-02T06:49:23.314Z,21.44
2023-01-02T06:51:49.852Z,21.24
2023-01-02T06:54:16.435Z,21.16
2023-01-02T06:56:42.962Z,21.11
2023-01-02T06:59:10.083Z,20.59
2023-01-02T07:01:36.678Z,20.49
2023-01-02T07:04:03.333Z,20.54
2023-01-02T07:06:30.743Z,20.75
2023-01-02T07:08:57.295Z,21.00
2023-01-02T07:11:25.439Z,21.47
2023-01-02T07:13:54.206Z,20.98
2023-01-02T07:16:22.670Z,20.49
2023-01-02T07:18:49.718Z,20.81
2023-01-02T07:21:18.523Z,21.40
2023-01-02T07:23:45.459Z,21.33
2023-01-02T07:26:13.570Z,20.99
2023-01-02T07:28:40.271Z,21.00
2023-01-02T07:31:11.396Z,21.53
2023-01-02T07:33:38.403Z,21.10
2023-01-02T07:36:08.091Z,21.08
2023-01-02T07:38:38.089Z,21.28
2023-01-02T07:41:18.854Z,21.53
2023-01-02T07:43:46.565Z,21.74
2023-01-02T07:46:15.116Z,21.08
2023-01-02T07:48:41.714Z,21.36
2023-01-02T07:51:09.013Z,21.58
2023-01-02T07:53:36.057Z,21.89
2023-01-02T07:56:02.941Z,21.30
2023-01-02T07:58:29.944Z,21.12
2023-01-02T08:01:03.309Z,21.22
2023-01-02T08:03:32.236Z,20.78
2023-01-02T08:06:08.757Z,21.21
2023-01-02T08:08:36.147Z,21.68
2023-01-02T08:11:07.632Z,21.44
2023-01-02T08:13:34.238Z,21.31
2023-01-02T08:16:05.681Z,21.67
2023-01-02T08:18:32.481Z,21.72
2023-01-02T08:20:59.057Z,22.10
2023-01-02T08:23:25.794Z,21.55
2023-01-02T08:25:57.373Z,20.98
2023-01-02T08:28:24.388Z,21.33
2023-01-02T08:30:51.479Z,21.93
2023-01-02T08:33:18.719Z,21.71
2023-01-02T08:35:45.686Z,21.82
2023-01-02T08:38:12.681Z,30.12
2023-01-02T08:40:39.336Z,32.63
2023-01-02T08:43:09.658Z,26.70
2023-01-02T08:45:36.501Z,23.94
2023-01-02T08:48:20.750Z,22.77
2023-01-02T08:50:49.962Z,32.37
2023-01-02T08:53:16.967Z,26.16
2023-01-02T08:55:43.791Z,23.37
2023-01-02T08:58:10.860Z,21.96
2023-01-02T09:00:37.413Z,21.58
2023-01-02T09:03:04.182Z,21.58
2023-01-02T09:05:31.416Z,21.89
2023-01-02T09:07:58.525Z,22.67
2023-01-02T09:10:25.820Z,21.54
2023-01-02T09:12:53.093Z,21.29
2023-01-02T09:15:19.738Z,21.37
2023-01-02T09:17:46.293Z,21.34
2023-01-02T09:20:13.031Z,21.13
2023-01-02T09:22:40.570Z,21.06
2023-01-02T09:25:07.666Z,21.15
2023-01-02T09:27:34.254Z,21.13
2023-01-02T09:30:00.801Z,21.81
2023-01-02T09:32:27.579Z,21.84
2023-01-02T09:34:54.124Z,21.87
2023-01-02T09:37:20.659Z,22.52
2023-01-02T09:39:47.184Z,22.33
2023-01-02T09:42:16.981Z,22.09
2023-01-02T09:44:49.499Z,22.09
2023-01-02T09:47:22.447Z,22.21
2023-01-02T09:49:54.712Z,22.77
2023-01-02T09:52:38.276Z,22.11
2023-01-02T09:55:14.969Z,22.41
2023-01-02T09:57:46.152Z,21.97
2023-01-02T10:00:21.076Z,22.06
2023-01-02T10:02:51.624Z,21.06
2023-01-02T10:05:26.766Z,21.40
2023-01-02T10:08:09.817Z,21.14
2023-01-02T10:10:43.332Z,21.21
2023-01-02T10:13:59.889Z,21.84
2023-01-02T10:16:22.208Z,21.17
2023-01-02T10:18:52.468Z,21.26
2023-01-02T10:21:25.839Z,21.99
2023-01-02T10:24:00.173Z,21.75
2023-01-02T10:26:35.329Z,21.11
2023-01-02T10:29:16.858Z,21.64
2023-01-02T10:31:50.166Z,21.14
2023-01-02T10:34:19.472Z,22.32
2023-01-02T10:36:46.719Z,21.58
2023-01-02T10:39:19.465Z,21.61
2023-01-02T10:41:50.137Z,21.18
2023-01-02T10:44:26.713Z,21.04
2023-01-02T10:46:55.134Z,21.43
2023-01-02T10:49:24.033Z,21.31
2023-01-02T10:52:04.792Z,21.15
2023-01-02T10:54:31.437Z,21.23
2023-01-02T10:56:58.457Z,21.04
2023-01-02T10:59:28.100Z,20.71
2023-01-02T11:01:57.422Z,20.34
2023-01-02T11:04:26.726Z,20.67
2023-01-02T11:06:56.393Z,21.27
2023-01-02T11:09:28.889Z,21.00
2023-01-02T11:11:58.255Z,20.66
2023-01-02T11:14:33.677Z,20.12
2023-01-02T11:17:24.522Z,20.01
2023-01-02T11:19:54.597Z,19.71
2023-01-02T11:22:23.308Z,19.51
2023-01-02T11:25:00.716Z,19.98
2023-01-02T11:27:37.208Z,20.80
2023-01-02T11:30:06.526Z,20.91
2023-01-02T11:32:40.725Z,20.53
2023-01-02T11:35:37.946Z,20.73
2023-01-02T11:38:04.919Z,20.82
2023-01-02T11:40:33.177Z,20.24
2023-01-02T11:43:25.387Z,20.08
2023-01-02T11:45:52.973Z,19.43
2023-01-02T11:48:22.611Z,20.23
2023-01-02T11:50:50.291Z,20.86
2023-01-02T11:53:46.516Z,19.73
2023-01-02T11:56:21.887Z,20.24
2023-01-02T11:59:14.302Z,19.99
2023-01-02T12:01:52.392Z,21.03
2023-01-02T12:04:19.454Z,20.67
2023-01-02T12:06:53.309Z,20.08
2023-01-02T12:09:29.674Z,20.19
2023-01-02T12:12:05.483Z,20.07
2023-01-02T12:14:54.340Z,19.24
2023-01-02T12:17:29.371Z,19.62
2023-01-02T12:20:15.969Z,19.14
2023-01-02T12:22:48.737Z,19.50
2023-01-02T12:25:46.616Z,19.79
2023-01-02T12:28:28.299Z,20.02
2023-01-02T12:31:20.400Z,19.60
2023-01-02T12:34:07.767Z,19.94
2023-01-02T12:36:47.204Z,20.25
2023-01-02T12:39:50.153Z,20.53
2023-01-02T12:42:28.593Z,20.31
2023-01-02T12:44:57.614Z,20.11
2023-01-02T12:47:42.238Z,20.76
2023-01-02T12:50:25.747Z,20.46
2023-01-02T12:53:29.672Z,19.80
2023-01-02T12:56:19.080Z,19.23
2023-01-02T12:59:10.972Z,19.30
2023-01-02T13:01:51.463Z,19.25
2023-01-02T13:04:27.229Z,19.07
2023-01-02T13:07:05.144Z,19.26
2023-01-02T13:09:39.192Z,19.02
2023-01-02T13:12:14.628Z,19.24
2023-01-02T13:14:50.168Z,19.27
2023-01-02T13:17:36.066Z,19.24
2023-01-02T13:20:27.341Z,19.57
2023-01-02T13:23:08.214Z,19.42
2023-01-02T13:25:44.986Z,19.51
2023-01-02T13:28:13.493Z,19.47
2023-01-02T13:31:00.985Z,19.86
2023-01-02T13:33:40.967Z,20.06
2023-01-02T13:36:20.883Z,19.69
2023-01-02T13:38:52.869Z,19.80
2023-01-02T13:41:20.653Z,19.55
2023-01-02T13:43:53.492Z,19.73
2023-01-02T13:49:21.133Z,19.83
2023-01-02T13:51:47.817Z,19.66
2023-01-02T13:54:20.763Z,19.89
2023-01-02T13:57:17.520Z,19.81
2023-01-02T14:00:24.331Z,19.83
2023-01-02T14:03:22.919Z,20.23
2023-01-02T14:05:58.912Z,20.42
2023-01-02T14:08:37.871Z,20.18
2023-01-02T14:11:27.369Z,20.57
2023-01-02T14:13:55.680Z,20.98
2023-01-02T14:16:22.414Z,21.23
2023-01-02T14:19:13.941Z,21.31
2023-01-02T14:21:46.080Z,21.03
2023-01-02T14:24:28.746Z,20.97
2023-01-02T14:27:00.895Z,20.98
2023-01-02T14:29:29.467Z,20.66
2023-01-02T14:32:04.339Z,20.25
2023-01-02T14:34:33.195Z,20.25
2023-01-02T14:37:01.644Z,21.12
2023-01-02T14:39:33.791Z,21.05
2023-01-02T14:42:38.444Z,21.51
2023-01-02T14:45:09.222Z,21.16
2023-01-02T14:47:41.923Z,21.31
2023-01-02T14:50:23.059Z,20.72
2023-01-02T14:53:09.802Z,20.55
2023-01-02T14:55:42.320Z,20.93
2023-01-02T14:58:29.614Z,21.05
2023-01-02T15:01:04.225Z,21.35
2023-01-02T15:03:41.462Z,21.03
2023-01-02T15:06:19.443Z,20.69
2023-01-02T15:08:51.405Z,20.55
2023-01-02T15:11:43.902Z,19.99
2023-01-02T15:14:17.830Z,18.97
2023-01-02T15:16:56.263Z,19.35
2023-01-02T15:19:27.044Z,19.03
2023-01-02T15:21:54.068Z,19.02
2023-01-02T15:24:27.644Z,19.11
2023-01-02T15:26:54.252Z,18.75
2023-01-02T15:29:27.540Z,18.43
2023-01-02T15:31:56.407Z,19.09
2023-01-02T15:34:29.363Z,18.99
2023-01-02T15:37:00.732Z,19.28
2023-01-02T15:39:34.109Z,19.45
2023-01-02T15:42:08.134Z,19.48
2023-01-02T15:44:57.821Z,19.35
2023-01-02T15:47:28.184Z,19.69
2023-01-02T15:49:57.350Z,20.20
2023-01-02T15:52:28.787Z,19.68
2023-01-02T15:54:56.098Z,19.61
2023-01-02T15:57:29.404Z,19.64
2023-01-02T15:59:56.135Z,19.80
2023-01-02T16:02:33.655Z,19.64
2023-01-02T16:05:28.348Z,19.85
2023-01-02T16:07:57.569Z,19.13
2023-01-02T16:10:26.743Z,19.35
2023-01-02T16:13:36.792Z,19.37
2023-01-02T16:16:16.682Z,19.48
2023-01-02T16:18:53.272Z,19.52
2023-01-02T16:21:20.455Z,19.93
2023-01-02T16:23:52.228Z,19.99
2023-01-02T16:26:20.858Z,19.66
2023-01-02T16:28:50.997Z,19.91
2023-01-02T16:31:20.528Z,19.66
2023-01-02T16:33:47.859Z,19.51
2023-01-02T16:36:14.312Z,19.29
2023-01-02T16:38:49.771Z,19.39
2023-01-02T16:41:45.121Z,19.43
2023-01-02T16:44:14.666Z,19.14
2023-01-02T16:46:45.990Z,19.21
2023-01-02T16:49:23.246Z,19.27
2023-01-02T16:51:53.912Z,19.29
2023-01-02T16:54:20.647Z,19.30
2023-01-02T16:56:47.699Z,19.22
2023-01-02T16:59:14.223Z,18.97
2023-01-02T17:01:41.259Z,19.00
2023-01-02T17:04:08.211Z,19.04
2023-01-02T17:06:35.386Z,18.90
2023-01-02T17:09:01.924Z,18.99
2023-01-02T17:11:30.663Z,19.19
2023-01-02T17:13:57.734Z,19.33
2023-01-02T17:16:24.628Z,19.46
2023-01-02T17:18:51.236Z,19.62
2023-01-02T17:21:18.797Z,19.83
2023-01-02T17:23:45.438Z,19.45
2023-01-02T17:26:12.522Z,19.27
2023-01-02T17:28:39.109Z,19.80
2023-01-02T17:31:05.670Z,20.18
2023-01-02T17:33:32.191Z,20.26
2023-01-02T17:35:58.988Z,19.59
2023-01-02T17:38:25.922Z,19.46
2023-01-02T17:40:57.447Z,19.31
2023-01-02T17:43:25.471Z,19.14
2023-01-02T17:45:52.071Z,19.44
2023-01-02T17:48:23.879Z,19.03
2023-01-02T17:50:52.674Z,18.97
2023-01-02T17:53:19.201Z,18.79
2023-01-02T17:56:21.573Z,18.69
2023-01-02T17:58:39.771Z,18.69
2023-01-02T18:01:06.909Z,18.58
2023-01-02T18:03:34.067Z,18.91
2023-01-02T18:06:05.141Z,19.05
2023-01-02T18:08:32.411Z,18.68
2023-01-02T18:10:58.916Z,18.45
2023-01-02T18:13:28.192Z,18.44
2023-01-02T18:15:54.730Z,17.98
2023-01-02T18:18:24.037Z,18.02
2023-01-02T18:20:52.407Z,18.27
2023-01-02T18:23:19.341Z,18.26
2023-01-02T18:25:46.119Z,18.53
2023-01-02T18:28:26.440Z,18.67
2023-01-02T18:30:56.796Z,18.38
2023-01-02T18:33:25.973Z,17.98
2023-01-02T18:35:59.322Z,17.32
2023-01-02T18:38:34.656Z,17.76
2023-01-02T18:41:14.389Z,17.72
2023-01-02T18:43:41.936Z,17.41
2023-01-02T18:46:18.070Z,17.30
2023-01-02T18:48:46.043Z,17.43
2023-01-02T18:51:22.286Z,17.33
2023-01-02T18:53:54.096Z,17.13
2023-01-02T18:56:25.329Z,17.43
2023-01-02T18:59:03.233Z,17.80
2023-01-02T19:01:34.900Z,17.15
2023-01-02T19:04:24.382Z,17.43
2023-01-02T19:06:56.713Z,18.09
2023-01-02T19:09:30.071Z,17.50
2023-01-02T19:12:19.847Z,17.36
2023-01-02T19:14:47.391Z,17.66
2023-01-02T19:17:21.423Z,17.48
2023-01-02T19:19:48.846Z,17.92
2023-01-02T19:22:21.735Z,17.40
2023-01-02T19:24:48.539Z,17.78
2023-01-02T19:27:23.034Z,17.99
2023-01-02T19:29:50.158Z,18.07
2023-01-02T19:32:27.554Z,18.21
2023-01-02T19:35:02.694Z,18.20
2023-01-02T19:37:38.744Z,18.46
2023-01-02T19:40:34.804Z,18.09
2023-01-02T19:43:01.331Z,18.39
2023-01-02T19:45:29.282Z,18.23
2023-01-02T19:47:56.152Z,18.65
2023-01-02T19:50:26.156Z,18.26
2023-01-02T19:52:52.828Z,18.09
2023-01-02T19:55:19.669Z,18.11
2023-01-02T19:57:46.587Z,17.97
2023-01-02T20:00:15.186Z,18.25
2023-01-02T20:02:45.439Z,18.15
2023-01-02T20:05:19.223Z,18.02
2023-01-02T20:07:50.761Z,17.87
2023-01-02T20:10:17.734Z,18.14
2023-01-02T20:12:44.788Z,18.41
2023-01-02T20:15:19.468Z,17.93
2023-01-02T20:17:46.676Z,18.32
2023-01-02T20:20:19.281Z,17.99
2023-01-02T20:22:47.063Z,17.86
2023-01-02T20:25:15.315Z,17.85
2023-01-02T20:27:42.082Z,17.71
2023-01-02T20:30:09.692Z,17.70
2023-01-02T20:32:36.512Z,17.88
2023-01-02T20:35:03.860Z,18.26
2023-01-02T20:37:31.015Z,17.79
2023-01-02T20:39:57.810Z,17.55
2023-01-02T20:42:25.385Z,18.01
2023-01-02T20:44:53.750Z,17.32
2023-01-02T20:47:20.412Z,17.06
2023-01-02T20:49:47.506Z,16.90
2023-01-02T20:52:14.651Z,16.83
2023-01-02T20:54:41.187Z,16.85
2023-01-02T20:57:07.754Z,17.34
2023-01-02T20:59:34.286Z,17.30
2023-01-02T21:02:01.271Z,17.37
2023-01-02T21:04:36.279Z,17.01
2023-01-02T21:07:05.069Z,16.66
2023-01-02T21:09:32.528Z,17.06
2023-01-02T21:11:59.086Z,16.97
2023-01-02T21:14:25.575Z,16.30
2023-01-02T21:16:52.410Z,16.78
2023-01-02T21:19:18.934Z,16.60
2023-01-02T21:21:46.174Z,16.30
2023-01-02T21:24:13.345Z,16.40
2023-01-02T21:26:40.054Z,16.50
2023-01-02T21:29:06.601Z,16.58
2023-01-02T21:31:34.597Z,16.58
2023-01-02T21:34:01.518Z,16.34
2023-01-02T21:36:28.259Z,15.90
2023-01-02T21:38:55.459Z,16.24
2023-01-02T21:41:40.791Z,16.43
2023-01-02T21:44:07.817Z,16.71
2023-01-02T21:46:34.370Z,16.93
2023-01-02T21:49:00.979Z,16.30
2023-01-02T21:51:32.500Z,16.67
2023-01-02T21:53:59.885Z,16.65
2023-01-02T21:56:26.526Z,16.84
2023-01-02T21:58:54.967Z,16.77
2023-01-02T22:01:22.398Z,17.09
2023-01-02T22:03:49.079Z,16.93
2023-01-02T22:06:16.445Z,17.25
2023-01-02T22:08:43.204Z,16.03
2023-01-02T22:11:28.540Z,16.01
2023-01-02T22:13:55.038Z,16.18
2023-01-02T22:16:22.799Z,16.27
2023-01-02T22:18:50.583Z,16.09
2023-01-02T22:21:17.349Z,16.54
2023-01-02T22:23:44.012Z,16.92
2023-01-02T22:26:10.761Z,17.48
2023-01-02T22:28:37.705Z,17.63
2023-01-02T22:31:05.826Z,17.49
2023-01-02T22:33:33.820Z,17.36
2023-01-02T22:36:00.318Z,17.18
2023-01-02T22:38:26.910Z,17.79
2023-01-02T22:40:54.263Z,17.91
2023-01-02T22:43:24.624Z,18.39
2023-01-02T22:45:53.348Z,18.50
2023-01-02T22:48:33.441Z,18.26
2023-01-02T22:51:01.943Z,18.33
2023-01-02T22:53:32.455Z,17.45
2023-01-02T22:56:01.348Z,17.55
2023-01-02T22:58:28.090Z,18.02
2023-01-02T23:01:02.007Z,17.94
2023-01-02T23:03:31.390Z,18.08
2023-01-02T23:05:58.020Z,17.88
2023-01-02T23:08:24.966Z,18.09
2023-01-02T23:10:52.654Z,18.05
2023-01-02T23:13:19.168Z,17.47
2023-01-02T23:16:04.145Z,17.02
2023-01-02T23:18:56.239Z,17.00
2023-01-02T23:21:25.288Z,17.67
2023-01-02T23:23:52.603Z,17.61
2023-01-02T23:26:19.681Z,17.83
2023-01-02T23:31:34.874Z,16.71
2023-01-02T23:34:01.495Z,16.75
2023-01-02T23:36:28.088Z,17.24
2023-01-02T23:38:54.619Z,17.22
2023-01-02T23:41:21.158Z,17.26
2023-01-02T23:43:47.905Z,17.31
2023-01-02T23:46:14.619Z,17.20
2023-01-02T23:48:41.159Z,17.24
2023-01-02T23:51:07.665Z,17.46
2023-01-02T23:53:34.488Z,16.89
2023-01-02T23:56:01.227Z,16.81
2023-01-02T23:58:27.958Z,16.70
